Time;durP1;ratioP1;P1;durP2;ratioP2;P2;SDS_P1;SDS_P2;PMS_P1;PMS_P2;Temp;Humidity;BMP_temperature;BMP_pressure;BME280_temperature;BME280_humidity;BME280_pressure;Samples;Min_cycle;Max_cycle;Signal;HPM_P1;HPM_P2
2022/06/12 00:01:15;;;;;;;1.00;0.37;;;15.40;99.90;;;;;;4840698;29;20249;-62
2022/06/12 00:03:42;;;;;;;0.30;0.30;;;15.40;99.90;;;;;;4840804;29;20222;-63
2022/06/12 00:06:08;;;;;;;2.27;1.10;;;15.40;99.90;;;;;;4840931;29;20201;-64
2022/06/12 00:08:36;;;;;;;0.93;0.47;;;15.40;99.90;;;;;;4840201;29;20337;-63
2022/06/12 00:11:05;;;;;;;0.73;0.73;;;15.40;99.90;;;;;;4824123;29;20549;-62
2022/06/12 00:13:41;;;;;;;0.97;0.50;;;15.40;99.90;;;;;;4840225;29;20195;-64
2022/06/12 00:16:09;;;;;;;1.87;0.90;;;15.40;99.90;;;;;;4840785;29;20204;-62
2022/06/12 00:18:35;;;;;;;0.53;0.50;;;15.40;99.90;;;;;;4840808;29;20201;-62
2022/06/12 00:21:10;;;;;;;1.90;0.83;;;15.40;99.90;;;;;;4840693;29;20204;-62
2022/06/12 00:23:58;;;;;;;3.10;2.13;;;15.40;99.90;;;;;;4825375;29;20220;-63
2022/06/12 00:26:31;;;;;;;0.50;0.50;;;15.40;99.90;;;;;;4840529;29;20253;-62
2022/06/12 00:28:59;;;;;;;0.60;0.60;;;15.40;99.90;;;;;;4858116;29;20213;-62
2022/06/12 00:31:29;;;;;;;1.40;1.00;;;15.40;99.90;;;;;;4857423;29;20243;-63
2022/06/12 00:33:55;;;;;;;0.43;0.43;;;15.40;99.90;;;;;;4858848;29;20197;-62
2022/06/12 00:36:24;;;;;;;1.50;1.27;;;15.40;99.90;;;;;;4858729;29;20205;-62
2022/06/12 00:38:50;;;;;;;0.70;0.70;;;15.40;99.90;;;;;;4858335;29;20197;-63
2022/06/12 00:41:17;;;;;;;0.93;0.77;;;15.40;99.90;;;;;;4858095;29;20209;-64
2022/06/12 00:43:43;;;;;;;0.13;0.10;;;15.50;99.90;;;;;;4858671;29;20193;-62
2022/06/12 00:46:28;;;;;;;1.03;0.30;;;15.50;99.90;;;;;;4858300;29;20196;-62
2022/06/12 00:48:54;;;;;;;0.30;0.30;;;15.50;99.90;;;;;;4858266;29;20205;-64
2022/06/12 00:51:20;;;;;;;0.13;0.13;;;15.50;99.90;;;;;;4858533;29;20871;-63
2022/06/12 00:53:56;;;;;;;0.77;0.77;;;15.50;99.90;;;;;;4858369;29;20201;-62
2022/06/12 00:56:26;;;;;;;0.33;0.33;;;15.50;99.90;;;;;;4858544;29;20260;-62
2022/06/12 00:59:03;;;;;;;1.00;0.50;;;15.60;99.90;;;;;;4858353;29;20228;-62
2022/06/12 01:01:34;;;;;;;1.00;0.80;;;15.60;99.90;;;;;;4857105;29;20208;-62
2022/06/12 01:06:48;;;;;;;0.67;0.40;;;15.60;99.90;;;;;;4858463;29;20215;-61
2022/06/12 01:09:22;;;;;;;0.23;0.23;;;15.70;99.90;;;;;;4857972;29;20257;-63
2022/06/12 01:11:49;;;;;;;1.33;0.57;;;15.70;99.90;;;;;;4857745;29;20649;-62
2022/06/12 01:14:18;;;;;;;0.67;0.50;;;15.70;99.90;;;;;;4858208;29;20193;-64
2022/06/12 01:16:45;;;;;;;0.53;0.37;;;15.70;99.90;;;;;;4857842;29;20304;-62
2022/06/12 01:19:34;;;;;;;0.73;0.50;;;15.70;99.90;;;;;;4858268;29;20543;-62
2022/06/12 01:22:31;;;;;;;6.17;0.43;;;15.80;99.90;;;;;;4857838;29;20261;-63
2022/06/12 01:24:59;;;;;;;2.60;0.83;;;15.80;99.90;;;;;;4860160;29;20201;-62
2022/06/12 01:27:28;;;;;;;0.10;0.10;;;15.80;99.90;;;;;;4854635;29;20325;-62
2022/06/12 01:30:19;;;;;;;0.20;0.20;;;15.80;99.90;;;;;;4843320;29;20246;-62
2022/06/12 01:33:09;;;;;;;0.20;0.20;;;15.90;99.90;;;;;;4842971;29;20654;-62
2022/06/12 01:35:44;;;;;;;1.23;0.90;;;15.90;99.90;;;;;;4843137;29;20252;-62
2022/06/12 01:38:33;;;;;;;0.43;0.43;;;16.00;99.90;;;;;;4827050;29;20259;-62
2022/06/12 01:41:03;;;;;;;8.00;5.80;;;16.00;99.90;;;;;;4843221;29;20552;-62
2022/06/12 01:43:50;;;;;;;9.87;7.33;;;16.00;99.90;;;;;;4842623;29;20616;-62
2022/06/12 01:46:21;;;;;;;11.43;6.93;;;16.00;99.90;;;;;;4842941;29;20193;-62
2022/06/12 01:48:58;;;;;;;11.27;6.97;;;16.00;99.90;;;;;;4842881;29;20651;-62
2022/06/12 01:51:24;;;;;;;9.27;6.97;;;16.00;99.90;;;;;;4842931;29;20209;-62
2022/06/12 01:53:52;;;;;;;10.40;6.97;;;16.10;99.90;;;;;;4842991;29;20186;-62
2022/06/12 01:56:36;;;;;;;8.40;6.87;;;16.10;99.90;;;;;;4843409;29;20207;-62
2022/06/12 01:59:26;;;;;;;11.17;7.83;;;16.10;99.90;;;;;;4833813;29;20608;-62
2022/06/12 02:01:58;;;;;;;8.27;6.83;;;16.10;99.90;;;;;;4842348;29;20818;-62
2022/06/12 02:04:38;;;;;;;8.37;6.93;;;16.10;99.90;;;;;;4842627;29;20269;-62
2022/06/12 02:07:30;;;;;;;10.40;7.73;;;16.10;99.90;;;;;;4842885;29;20197;-62
2022/06/12 02:10:08;;;;;;;8.57;6.63;;;16.10;99.90;;;;;;4842783;29;20193;-62
2022/06/12 02:15:31;;;;;;;8.50;7.40;;;16.10;99.90;;;;;;4842975;29;20201;-61
2022/06/12 02:18:17;;;;;;;9.23;6.90;;;16.10;99.90;;;;;;4842992;29;20189;-61
2022/06/12 02:20:48;;;;;;;11.70;7.20;;;16.10;99.90;;;;;;4826451;29;20225;-61
2022/06/12 02:23:31;;;;;;;11.10;7.70;;;16.10;99.90;;;;;;4842536;29;20229;-61
2022/06/12 02:25:59;;;;;;;13.83;7.33;;;16.10;99.90;;;;;;4842116;29;20663;-62
2022/06/12 02:28:34;;;;;;;16.43;8.13;;;16.10;99.90;;;;;;4842398;29;20237;-61
2022/06/12 02:31:05;;;;;;;14.17;7.60;;;16.10;99.90;;;;;;4842417;29;20185;-61
2022/06/12 02:33:41;;;;;;;11.00;7.63;;;16.20;99.90;;;;;;4841693;29;20594;-61
2022/06/12 02:36:15;;;;;;;11.70;8.27;;;16.20;99.90;;;;;;4841444;29;20189;-61
2022/06/12 02:38:57;;;;;;;12.63;7.93;;;16.20;99.90;;;;;;4841668;29;20193;-61
2022/06/12 02:41:31;;;;;;;11.90;7.57;;;16.20;99.90;;;;;;4841973;29;20204;-61
2022/06/12 02:44:01;;;;;;;11.70;7.40;;;16.20;99.90;;;;;;4842176;29;20212;-61
2022/06/12 02:46:33;;;;;;;10.23;8.43;;;16.30;99.90;;;;;;4841932;29;20679;-61
2022/06/12 02:48:59;;;;;;;11.33;6.97;;;16.30;99.90;;;;;;4841666;29;20198;-60
2022/06/12 02:51:46;;;;;;;10.70;7.37;;;16.30;99.90;;;;;;4842028;29;20202;-60
2022/06/12 02:54:31;;;;;;;13.03;8.43;;;16.30;99.90;;;;;;4841673;29;20234;-62
2022/06/12 02:57:11;;;;;;;10.83;7.30;;;16.30;99.90;;;;;;4841768;29;20650;-62
2022/06/12 02:59:58;;;;;;;14.70;7.63;;;16.30;99.90;;;;;;4841300;29;20255;-62
2022/06/12 03:02:57;;;;;;;11.13;7.47;;;16.40;99.90;;;;;;4841390;29;20227;-61
2022/06/12 03:05:32;;;;;;;11.53;7.30;;;16.40;99.90;;;;;;4841782;29;20208;-62
2022/06/12 03:08:14;;;;;;;10.37;7.00;;;16.40;99.90;;;;;;4841692;29;20204;-62
2022/06/12 03:10:45;;;;;;;9.77;7.97;;;16.50;99.90;;;;;;4841619;29;20200;-62
2022/06/12 03:13:11;;;;;;;11.27;7.53;;;16.50;99.90;;;;;;4841989;29;20202;-62
2022/06/12 03:15:48;;;;;;;9.67;7.27;;;16.50;99.90;;;;;;4840324;29;20555;-62
2022/06/12 03:18:33;;;;;;;10.73;7.40;;;16.50;99.90;;;;;;4841991;29;20268;-62
2022/06/12 03:21:41;;;;;;;9.20;5.97;;;16.60;99.90;;;;;;4841517;29;20200;-62
2022/06/12 03:24:25;;;;;;;11.83;7.20;;;16.70;99.90;;;;;;4796042;29;20213;-61
2022/06/12 03:27:27;;;;;;;10.03;6.70;;;16.70;99.90;;;;;;4843628;29;20416;-62
2022/06/12 03:30:09;;;;;;;9.33;6.57;;;16.70;99.90;;;;;;4859624;29;20271;-62
2022/06/12 03:32:46;;;;;;;12.10;7.73;;;16.70;99.90;;;;;;4859182;29;20296;-62
2022/06/12 03:35:39;;;;;;;14.53;6.67;;;16.70;99.90;;;;;;4859737;29;20196;-62
2022/06/12 03:38:21;;;;;;;10.00;6.63;;;16.70;99.90;;;;;;4859414;29;20193;-62
2022/06/12 03:40:47;;;;;;;10.17;5.90;;;16.70;99.90;;;;;;4858336;29;20196;-60
2022/06/12 03:43:20;;;;;;;9.17;6.23;;;16.70;99.90;;;;;;4859479;29;20392;-60
2022/06/12 03:45:50;;;;;;;10.40;6.67;;;16.60;99.90;;;;;;4858390;29;20197;-63
2022/06/12 03:48:25;;;;;;;24.23;7.53;;;16.60;99.90;;;;;;4858734;29;20702;-62
2022/06/12 03:51:32;;;;;;;10.20;6.83;;;16.50;99.90;;;;;;4859317;29;20188;-63
2022/06/12 03:54:04;;;;;;;10.07;7.30;;;16.50;99.90;;;;;;4843819;29;20215;-61
2022/06/12 03:59:46;;;;;;;10.67;7.40;;;16.50;99.90;;;;;;4858599;29;20256;-61
2022/06/12 04:02:17;;;;;;;9.60;6.60;;;16.40;99.90;;;;;;4858321;29;20217;-61
2022/06/12 04:04:44;;;;;;;14.60;7.20;;;16.40;99.90;;;;;;4841601;29;20689;-61
2022/06/12 04:07:14;;;;;;;11.00;7.27;;;16.40;99.90;;;;;;4858937;29;20197;-61
2022/06/12 04:09:44;;;;;;;13.23;7.03;;;16.40;99.90;;;;;;4858667;29;20193;-61
2022/06/12 04:12:18;;;;;;;10.30;7.10;;;16.50;99.90;;;;;;4859156;29;20185;-61
2022/06/12 04:14:55;;;;;;;13.27;7.50;;;16.60;99.90;;;;;;4857430;29;20216;-62
2022/06/12 04:17:22;;;;;;;12.43;7.27;;;16.70;99.90;;;;;;4858882;29;20199;-61
2022/06/12 04:20:03;;;;;;;7.90;6.27;;;16.80;99.90;;;;;;4858894;29;20197;-62
2022/06/12 04:22:54;;;;;;;8.87;6.57;;;16.80;99.90;;;;;;4858808;29;20231;-61
2022/06/12 04:25:28;;;;;;;12.67;5.90;;;17.00;99.90;;;;;;4858393;29;20355;-61
2022/06/12 04:27:54;;;;;;;10.60;5.83;;;17.00;99.90;;;;;;4858470;29;20728;-61
2022/06/12 04:30:26;;;;;;;9.03;6.17;;;17.00;99.90;;;;;;4858790;29;20196;-62
2022/06/12 04:33:04;;;;;;;9.20;6.50;;;17.10;99.90;;;;;;4858145;29;20200;-61
2022/06/12 04:35:37;;;;;;;7.67;6.17;;;17.10;99.90;;;;;;4858267;29;20719;-64
2022/06/12 04:38:03;;;;;;;8.13;6.93;;;17.10;99.90;;;;;;4858564;29;20211;-61
2022/06/12 04:40:29;;;;;;;9.47;6.43;;;17.10;99.90;;;;;;4857674;29;20197;-61
2022/06/12 04:42:55;;;;;;;11.10;6.70;;;17.10;99.90;;;;;;4858224;29;20233;-62
2022/06/12 04:45:20;;;;;;;8.20;6.27;;;17.10;99.90;;;;;;4858270;29;20282;-60
2022/06/12 04:47:46;;;;;;;9.80;6.37;;;17.10;99.90;;;;;;4858422;29;20201;-61
2022/06/12 04:50:16;;;;;;;11.17;7.10;;;17.00;99.90;;;;;;4841794;29;20196;-61
2022/06/12 04:52:42;;;;;;;7.60;5.90;;;17.10;99.90;;;;;;4857526;29;20197;-61
2022/06/12 04:55:08;;;;;;;10.47;7.20;;;17.20;99.90;;;;;;4858583;29;20204;-61
2022/06/12 04:57:33;;;;;;;10.37;6.80;;;17.20;99.90;;;;;;4841141;29;20264;-62
2022/06/12 04:59:59;;;;;;;12.53;6.90;;;17.20;99.90;;;;;;4857592;29;20189;-61
2022/06/12 05:02:25;;;;;;;8.33;6.90;;;17.20;99.90;;;;;;4858367;29;20345;-61
2022/06/12 05:04:52;;;;;;;10.70;7.27;;;17.20;99.90;;;;;;4857934;29;20208;-61
2022/06/12 05:07:17;;;;;;;11.60;6.83;;;17.30;99.90;;;;;;4857825;29;20200;-61
2022/06/12 05:09:44;;;;;;;11.47;7.07;;;17.30;99.90;;;;;;4858210;29;20197;-61
2022/06/12 05:12:12;;;;;;;10.57;6.43;;;17.30;99.90;;;;;;4858615;29;20193;-62
2022/06/12 05:14:38;;;;;;;13.77;7.27;;;17.40;99.90;;;;;;4857191;29;20242;-63
2022/06/12 05:17:10;;;;;;;14.27;7.17;;;17.40;99.90;;;;;;4858062;29;20201;-61
2022/06/12 05:19:38;;;;;;;9.43;7.07;;;17.30;99.90;;;;;;4858342;29;20189;-62
2022/06/12 05:22:05;;;;;;;10.03;7.33;;;17.20;99.90;;;;;;4840576;29;20220;-59
2022/06/12 05:24:32;;;;;;;10.23;8.07;;;17.10;99.90;;;;;;4858019;29;20262;-64
2022/06/12 05:26:59;;;;;;;10.70;7.47;;;17.10;99.90;;;;;;4857851;29;20247;-60
2022/06/12 05:29:31;;;;;;;10.70;7.57;;;17.20;99.90;;;;;;4857516;29;20650;-60
2022/06/12 05:31:58;;;;;;;13.50;7.47;;;17.20;99.90;;;;;;4856992;29;20193;-60
2022/06/12 05:34:25;;;;;;;8.33;7.27;;;17.30;99.90;;;;;;4857104;29;20248;-62
2022/06/12 05:36:52;;;;;;;11.63;7.90;;;17.50;99.90;;;;;;4857479;29;20910;-60
2022/06/12 05:39:18;;;;;;;10.47;8.30;;;17.60;99.90;;;;;;4858172;29;20193;-60
2022/06/12 05:41:45;;;;;;;10.80;7.30;;;17.60;99.90;;;;;;4857353;29;20232;-60
2022/06/12 05:44:12;;;;;;;8.83;7.03;;;17.60;99.90;;;;;;4857559;29;20211;-64
2022/06/12 05:46:38;;;;;;;10.53;6.80;;;17.70;99.90;;;;;;4857414;29;20197;-61
2022/06/12 05:49:05;;;;;;;9.90;7.00;;;17.70;99.90;;;;;;4857899;29;20200;-63
2022/06/12 05:51:32;;;;;;;13.50;7.63;;;17.80;99.90;;;;;;4856922;29;20197;-68
2022/06/12 05:53:58;;;;;;;8.50;6.80;;;17.80;99.90;;;;;;4825886;29;20276;-59
2022/06/12 05:56:26;;;;;;;12.00;6.80;;;17.70;99.90;;;;;;4857519;29;20655;-59
2022/06/12 05:58:52;;;;;;;8.63;6.90;;;17.70;99.90;;;;;;4857083;29;20193;-62
2022/06/12 06:01:20;;;;;;;9.60;7.30;;;17.70;99.90;;;;;;4848211;29;20284;-59
2022/06/12 06:03:47;;;;;;;9.87;6.63;;;17.80;99.90;;;;;;4857123;29;20555;-59
2022/06/12 06:06:17;;;;;;;11.40;7.17;;;17.90;99.90;;;;;;4840544;29;20293;-62
2022/06/12 06:08:43;;;;;;;10.73;6.77;;;17.90;99.90;;;;;;4856126;29;20225;-60
2022/06/12 06:11:09;;;;;;;10.83;6.43;;;17.90;99.90;;;;;;4859236;29;20576;-59
2022/06/12 06:13:34;;;;;;;10.90;6.63;;;17.80;99.90;;;;;;4843735;29;20220;-60
2022/06/12 06:16:01;;;;;;;9.17;6.87;;;17.80;99.90;;;;;;4860458;29;20216;-61
2022/06/12 06:18:27;;;;;;;9.50;6.70;;;17.80;99.90;;;;;;4843294;29;20193;-61
2022/06/12 06:20:53;;;;;;;9.67;6.77;;;18.00;99.90;;;;;;4859789;29;20217;-61
2022/06/12 06:23:18;;;;;;;8.73;6.82;;;17.90;99.90;;;;;;4859062;29;20217;-64
2022/06/12 06:25:44;;;;;;;9.70;6.37;;;18.00;99.90;;;;;;4859168;29;20717;-63
2022/06/12 06:28:13;;;;;;;9.93;6.40;;;18.00;99.90;;;;;;4847185;29;20606;-61
2022/06/12 06:30:39;;;;;;;10.03;6.83;;;18.00;99.90;;;;;;4841517;29;20647;-62
2022/06/12 06:33:06;;;;;;;10.50;6.33;;;18.00;99.90;;;;;;4841572;29;20209;-62
2022/06/12 06:35:32;;;;;;;12.47;6.67;;;18.10;99.90;;;;;;4841832;29;20284;-65
2022/06/12 06:37:58;;;;;;;7.40;6.53;;;18.00;99.90;;;;;;4842160;29;20288;-63
2022/06/12 06:40:27;;;;;;;7.28;6.43;;;18.10;99.90;;;;;;4842082;29;20198;-62
2022/06/12 06:42:52;;;;;;;7.93;6.57;;;18.00;99.90;;;;;;4825246;29;20224;-63
2022/06/12 06:48:04;;;;;;;9.67;6.10;;;18.10;99.90;;;;;;4842389;29;20209;-62
2022/06/12 06:50:31;;;;;;;10.13;6.20;;;18.20;99.90;;;;;;4842094;29;20190;-62
2022/06/12 06:52:59;;;;;;;13.38;7.03;;;18.30;99.90;;;;;;4841421;29;20200;-62
2022/06/12 06:55:25;;;;;;;10.25;6.45;;;18.30;99.90;;;;;;4825038;29;20677;-62
2022/06/12 06:57:51;;;;;;;7.15;5.25;;;18.40;99.90;;;;;;4824892;29;20716;-62
2022/06/12 07:00:24;;;;;;;9.00;6.35;;;18.40;99.90;;;;;;4841501;29;20619;-64
2022/06/12 07:02:50;;;;;;;9.48;6.03;;;18.40;99.90;;;;;;4841098;29;20694;-60
2022/06/12 07:05:18;;;;;;;9.50;5.55;;;18.40;99.90;;;;;;4841806;29;20193;-59
2022/06/12 07:07:43;;;;;;;9.60;6.13;;;18.50;99.90;;;;;;4840255;29;20197;-60
2022/06/12 07:10:14;;;;;;;14.63;6.43;;;18.50;99.90;;;;;;4841247;29;20190;-58
2022/06/12 07:12:40;;;;;;;9.80;5.78;;;18.60;99.90;;;;;;4841102;29;20274;-53
2022/06/12 07:15:07;;;;;;;11.57;7.53;;;18.80;99.90;;;;;;4840815;29;20204;-64
2022/06/12 07:17:33;;;;;;;8.05;5.65;;;18.90;99.90;;;;;;4841047;29;20205;-63
2022/06/12 07:19:59;;;;;;;8.75;5.93;;;18.90;99.90;;;;;;4839475;29;20202;-61
2022/06/12 07:22:25;;;;;;;11.38;6.57;;;18.80;99.90;;;;;;4839550;29;20573;-61
2022/06/12 07:24:50;;;;;;;10.27;6.60;;;19.00;99.90;;;;;;4838524;29;20194;-61
2022/06/12 07:27:16;;;;;;;9.13;5.97;;;19.20;99.90;;;;;;4839950;29;20242;-60
2022/06/12 07:29:42;;;;;;;10.57;6.57;;;19.40;99.90;;;;;;4841053;29;20630;-60
2022/06/12 07:32:08;;;;;;;13.18;6.65;;;19.40;99.90;;;;;;4841210;29;20190;-60
2022/06/12 07:34:34;;;;;;;7.57;5.65;;;19.40;99.90;;;;;;4840628;29;20201;-61
2022/06/12 07:37:00;;;;;;;9.98;6.13;;;19.30;99.90;;;;;;4840795;29;20643;-60
2022/06/12 07:39:30;;;;;;;10.82;5.82;;;19.20;99.90;;;;;;4841355;29;20223;-62
2022/06/12 07:41:56;;;;;;;11.82;6.60;;;19.20;99.90;;;;;;4842047;29;20224;-62
2022/06/12 07:44:26;;;;;;;7.35;5.82;;;19.00;99.90;;;;;;4841790;29;20262;-62
2022/06/12 07:46:54;;;;;;;12.23;6.63;;;18.90;99.90;;;;;;4841657;29;20674;-62
2022/06/12 07:49:21;;;;;;;10.15;6.05;;;18.80;99.90;;;;;;4841828;29;20255;-62
2022/06/12 07:51:48;;;;;;;12.93;6.57;;;18.90;99.90;;;;;;4841737;29;20190;-61
2022/06/12 07:54:15;;;;;;;7.57;6.10;;;18.90;99.90;;;;;;4841401;29;20249;-61
2022/06/12 07:56:40;;;;;;;8.27;6.75;;;18.90;99.90;;;;;;4841551;29;20210;-62
2022/06/12 07:59:08;;;;;;;13.82;7.22;;;18.80;99.90;;;;;;4842095;29;20603;-62
2022/06/12 08:01:36;;;;;;;9.93;6.55;;;18.80;99.90;;;;;;4841075;29;20198;-61
2022/06/12 08:04:02;;;;;;;8.15;5.80;;;18.60;99.90;;;;;;4841475;29;20690;-61
2022/06/12 08:06:28;;;;;;;11.68;5.93;;;18.60;99.90;;;;;;4841271;29;20238;-62
2022/06/12 08:08:56;;;;;;;9.82;5.32;;;18.60;99.90;;;;;;4841422;29;20198;-60
2022/06/12 08:11:23;;;;;;;6.47;5.18;;;18.60;99.90;;;;;;4841386;29;20232;-62
2022/06/12 08:13:49;;;;;;;9.70;5.75;;;18.70;99.90;;;;;;4841056;29;20284;-62
2022/06/12 08:16:15;;;;;;;8.52;5.32;;;18.90;99.90;;;;;;4841496;29;20193;-61
2022/06/12 08:18:41;;;;;;;7.95;5.43;;;18.80;99.90;;;;;;4850106;29;20188;-63
2022/06/12 08:21:10;;;;;;;6.78;5.78;;;19.00;99.90;;;;;;4859245;29;20185;-62
2022/06/12 08:23:47;;;;;;;9.10;5.90;;;19.20;99.90;;;;;;4859469;29;20220;-62
2022/06/12 08:26:24;;;;;;;8.73;5.80;;;19.30;99.90;;;;;;4859526;29;20609;-62
2022/06/12 08:28:52;;;;;;;8.10;5.05;;;19.30;99.90;;;;;;4859141;29;20236;-62
2022/06/12 08:31:30;;;;;;;6.43;5.45;;;19.30;99.90;;;;;;4859566;29;20189;-61
2022/06/12 08:34:01;;;;;;;10.57;5.65;;;19.20;99.90;;;;;;4858574;29;20207;-62
2022/06/12 08:36:27;;;;;;;10.73;6.00;;;19.40;99.90;;;;;;4842789;29;20211;-62
2022/06/12 08:38:53;;;;;;;9.93;5.65;;;19.70;99.90;;;;;;4842422;29;20235;-60
2022/06/12 08:41:38;;;;;;;14.18;5.53;;;19.90;99.90;;;;;;4859574;29;20220;-61
2022/06/12 08:44:31;;;;;;;8.00;4.18;;;20.20;99.90;;;;;;4859312;29;20352;-61
2022/06/12 08:47:14;;;;;;;10.02;5.55;;;20.60;99.90;;;;;;4859093;29;20495;-62
2022/06/12 08:49:43;;;;;;;9.55;5.15;;;20.60;99.90;;;;;;4858949;29;20189;-61
2022/06/12 08:52:35;;;;;;;9.90;4.93;;;21.00;99.90;;;;;;4859084;29;20189;-61
2022/06/12 08:55:10;;;;;;;12.60;4.93;;;21.20;99.90;;;;;;4859005;29;20188;-60
2022/06/12 08:58:02;;;;;;;7.32;4.75;;;21.70;99.90;;;;;;4858812;29;20241;-60
2022/06/12 09:00:32;;;;;;;10.88;5.43;;;22.20;99.90;;;;;;4850746;29;20209;-62
2022/06/12 09:02:58;;;;;;;8.27;4.50;;;21.90;99.90;;;;;;4858704;29;20574;-61
2022/06/12 09:05:35;;;;;;;9.27;5.10;;;22.20;99.90;;;;;;4859056;29;20188;-61
2022/06/12 09:08:09;;;;;;;10.52;5.13;;;22.30;99.90;;;;;;4858907;29;20298;-61
2022/06/12 09:10:58;;;;;;;22.20;5.40;;;22.40;99.90;;;;;;4851199;29;20619;-61
2022/06/12 09:13:29;;;;;;;9.90;4.95;;;22.60;99.90;;;;;;4840385;29;20189;-61
2022/06/12 09:16:13;;;;;;;6.13;3.80;;;22.30;99.90;;;;;;4840423;29;20716;-59
2022/06/12 09:18:56;;;;;;;8.48;4.40;;;22.60;99.90;;;;;;4848948;29;20272;-60
2022/06/12 09:21:35;;;;;;;5.05;4.15;;;22.30;99.90;;;;;;4858794;29;20264;-59
2022/06/12 09:24:07;;;;;;;6.20;4.57;;;21.80;99.90;;;;;;4858555;29;20209;-61
2022/06/12 09:26:33;;;;;;;7.90;4.43;;;21.50;99.90;;;;;;4858502;29;20181;-61
2022/06/12 09:29:30;;;;;;;9.73;5.97;;;21.10;99.90;;;;;;4858345;29;20205;-59
2022/06/12 09:32:17;;;;;;;8.88;5.43;;;20.80;99.90;;;;;;4841525;29;20292;-61
2022/06/12 09:35:23;;;;;;;10.98;4.60;;;20.70;99.90;;;;;;4858642;29;20274;-61
2022/06/12 09:40:43;;;;;;;13.55;5.50;;;20.60;99.90;;;;;;4858655;29;20211;-61
2022/06/12 09:43:36;;;;;;;10.90;5.20;;;20.60;99.90;;;;;;4858657;29;20323;-61
2022/06/12 09:46:26;;;;;;;10.20;4.75;;;20.60;99.90;;;;;;4860050;29;20275;-60
2022/06/12 09:49:20;;;;;;;8.88;5.22;;;20.50;99.90;;;;;;4862142;29;20340;-61
2022/06/12 09:52:07;;;;;;;10.15;5.25;;;20.40;99.90;;;;;;4861986;29;20184;-63
2022/06/12 09:54:38;;;;;;;11.40;5.45;;;20.30;99.90;;;;;;4861958;29;20185;-61
2022/06/12 09:57:17;;;;;;;9.13;5.20;;;20.30;99.90;;;;;;4862252;29;20196;-61
2022/06/12 10:00:17;;;;;;;7.57;4.80;;;20.30;99.90;;;;;;4862130;29;20188;-62
2022/06/12 10:02:46;;;;;;;7.68;4.75;;;20.20;99.90;;;;;;4861547;29;20743;-61
2022/06/12 10:05:19;;;;;;;15.00;5.55;;;20.20;99.90;;;;;;4861871;29;20619;-62
2022/06/12 10:08:07;;;;;;;8.45;4.78;;;20.20;99.90;;;;;;4862437;29;20177;-61
2022/06/12 10:10:41;;;;;;;8.43;4.78;;;20.10;99.90;;;;;;4854225;29;20268;-61
2022/06/12 10:13:12;;;;;;;6.22;5.00;;;20.10;99.90;;;;;;4826710;29;20197;-61
2022/06/12 10:15:48;;;;;;;8.80;5.07;;;20.00;99.90;;;;;;4843055;29;20190;-61
2022/06/12 10:18:27;;;;;;;8.52;5.40;;;19.90;99.90;;;;;;4844685;29;20189;-60
2022/06/12 10:20:58;;;;;;;7.00;5.38;;;19.80;99.90;;;;;;4843234;29;20190;-60
2022/06/12 10:23:24;;;;;;;12.82;6.40;;;19.90;99.90;;;;;;4843449;29;20273;-60
2022/06/12 10:25:58;;;;;;;7.35;5.40;;;20.00;99.90;;;;;;4841842;29;20197;-60
2022/06/12 10:28:34;;;;;;;7.97;5.25;;;19.90;99.90;;;;;;4842463;29;20254;-62
2022/06/12 10:31:20;;;;;;;11.65;5.97;;;19.70;99.90;;;;;;4843113;29;20733;-61
2022/06/12 10:33:56;;;;;;;11.27;6.30;;;19.60;99.90;;;;;;4843006;29;20194;-62
2022/06/12 10:36:31;;;;;;;11.18;6.75;;;19.30;99.90;;;;;;4842658;29;20197;-62
2022/06/12 10:39:26;;;;;;;12.65;7.00;;;19.30;99.90;;;;;;4842921;29;20591;-62
2022/06/12 10:41:56;;;;;;;11.38;7.18;;;19.30;99.90;;;;;;4826710;29;20229;-62
2022/06/12 10:44:38;;;;;;;10.60;7.50;;;19.10;99.90;;;;;;4842984;29;20333;-62
2022/06/12 10:47:16;;;;;;;7.18;6.20;;;19.10;99.90;;;;;;4842967;29;20193;-62
2022/06/12 10:49:43;;;;;;;8.68;6.57;;;19.10;99.90;;;;;;4826378;29;20221;-62
2022/06/12 10:52:19;;;;;;;12.77;6.57;;;19.20;99.90;;;;;;4842915;29;20284;-61
2022/06/12 10:54:47;;;;;;;10.32;6.20;;;19.20;99.90;;;;;;4826206;29;20182;-61
2022/06/12 10:57:50;;;;;;;10.30;5.93;;;19.30;99.90;;;;;;4841520;29;20218;-61
2022/06/12 11:00:23;;;;;;;8.10;6.82;;;19.30;99.90;;;;;;4842914;29;20559;-63
2022/06/12 11:02:56;;;;;;;11.40;7.25;;;19.30;99.90;;;;;;4842532;29;20610;-62
2022/06/12 11:05:44;;;;;;;13.30;7.53;;;19.40;99.90;;;;;;4842747;29;20233;-60
2022/06/12 11:08:28;;;;;;;14.30;8.05;;;19.50;99.90;;;;;;4842664;29;20281;-62
2022/06/12 11:11:09;;;;;;;8.27;7.35;;;19.50;99.90;;;;;;4842225;29;20229;-63
2022/06/12 11:14:16;;;;;;;9.60;7.60;;;19.60;99.90;;;;;;4842752;29;20285;-61
2022/06/12 11:17:36;;;;;;;8.32;7.43;;;19.70;99.90;;;;;;4842974;29;20245;-60
2022/06/12 11:20:36;;;;;;;12.98;7.55;;;19.80;99.90;;;;;;4767762;30;20253;-60
2022/06/12 11:23:10;;;;;;;9.30;7.38;;;19.80;99.90;;;;;;4824033;29;20214;-60
2022/06/12 11:25:48;;;;;;;18.13;7.90;;;19.90;99.90;;;;;;4823715;29;20216;-61
2022/06/12 11:28:26;;;;;;;11.93;7.70;;;20.10;99.90;;;;;;4823932;29;20240;-61
2022/06/12 11:31:04;;;;;;;10.30;7.68;;;20.20;99.90;;;;;;4824274;29;20190;-60
2022/06/12 11:33:41;;;;;;;8.93;6.50;;;20.20;99.90;;;;;;4822809;29;20554;-61
2022/06/12 11:36:21;;;;;;;17.90;7.18;;;20.40;99.90;;;;;;4823573;29;20193;-61
2022/06/12 11:38:59;;;;;;;9.18;7.03;;;20.60;99.90;;;;;;4823635;29;20228;-61
2022/06/12 11:41:55;;;;;;;7.88;5.85;;;20.60;99.90;;;;;;4823464;29;20278;-61
2022/06/12 11:44:45;;;;;;;11.93;6.63;;;20.70;99.90;;;;;;4823758;29;20709;-61
2022/06/12 11:47:25;;;;;;;11.40;5.82;;;20.80;99.90;;;;;;4823780;29;20190;-60
2022/06/12 11:50:15;;;;;;;9.85;5.43;;;21.00;99.90;;;;;;4823332;29;20543;-60
2022/06/12 11:52:48;;;;;;;7.00;5.47;;;21.00;99.90;;;;;;4823760;29;20257;-61
2022/06/12 11:55:20;;;;;;;9.20;6.03;;;21.20;99.90;;;;;;4822982;29;20287;-60
2022/06/12 11:57:56;;;;;;;12.05;6.40;;;21.30;99.90;;;;;;4823554;29;20190;-61
2022/06/12 12:00:34;;;;;;;7.65;5.32;;;21.50;99.90;;;;;;4823467;29;20218;-61
2022/06/12 12:03:29;;;;;;;12.13;5.53;;;21.80;99.90;;;;;;4823574;29;20239;-61
2022/06/12 12:06:32;;;;;;;9.00;4.97;;;22.00;99.90;;;;;;4773268;29;20295;-61
2022/06/12 12:09:21;;;;;;;6.90;5.60;;;22.20;99.90;;;;;;4823150;29;20193;-60
2022/06/12 12:11:53;;;;;;;12.88;5.80;;;22.10;99.90;;;;;;4840078;29;20182;-62
2022/06/12 12:14:29;;;;;;;8.23;5.30;;;22.10;99.90;;;;;;4841605;29;20189;-60
2022/06/12 12:17:07;;;;;;;10.45;5.68;;;22.10;99.90;;;;;;4840909;29;20190;-63
2022/06/12 12:19:43;;;;;;;7.70;5.30;;;22.20;99.90;;;;;;4857407;29;20184;-61
2022/06/12 12:22:20;;;;;;;7.82;5.80;;;22.40;99.90;;;;;;4859763;29;20205;-61
2022/06/12 12:24:51;;;;;;;11.82;5.28;;;22.30;99.90;;;;;;4859742;29;20192;-62
2022/06/12 12:27:33;;;;;;;10.13;5.28;;;22.60;99.90;;;;;;4849062;29;20250;-61
2022/06/12 12:30:02;;;;;;;8.93;5.90;;;23.00;99.90;;;;;;4878306;29;20195;-60
2022/06/12 12:32:30;;;;;;;8.77;4.72;;;23.30;99.90;;;;;;4878546;29;20537;-63
2022/06/12 12:34:58;;;;;;;6.05;4.32;;;23.60;99.90;;;;;;4878299;29;20188;-61
2022/06/12 12:41:12;;;;;;;7.85;4.78;;;23.80;99.90;;;;;;4878321;29;20196;-60
2022/06/12 12:43:19;;;;;;;8.00;4.00;;;25.40;99.90;;;;;;4867547;29;20624;-61
2022/06/12 12:45:44;;;;;;;8.93;4.30;;;27.40;99.90;;;;;;4877811;29;20328;-62
2022/06/12 12:48:15;;;;;;;5.63;3.88;;;27.60;98.90;;;;;;4877997;29;20546;-63
2022/06/12 12:50:48;;;;;;;6.22;4.68;;;27.20;98.70;;;;;;4861550;29;20245;-61
2022/06/12 12:53:30;;;;;;;7.22;4.30;;;26.70;99.90;;;;;;4878487;29;20177;-61
2022/06/12 12:56:01;;;;;;;5.78;3.90;;;26.00;99.90;;;;;;4877716;29;20211;-61
2022/06/12 12:58:28;;;;;;;7.18;4.28;;;25.20;99.90;;;;;;4877187;29;20236;-62
2022/06/12 13:01:41;;;;;;;7.70;4.22;;;25.10;99.90;;;;;;4877602;29;20267;-62
2022/06/12 13:04:16;;;;;;;7.22;4.43;;;24.90;99.90;;;;;;4861410;29;20692;-61
2022/06/12 13:07:13;;;;;;;10.38;4.35;;;24.40;99.90;;;;;;4877796;29;20247;-61
2022/06/12 13:09:54;;;;;;;6.65;4.82;;;24.30;99.90;;;;;;4877403;29;20599;-61
2022/06/12 13:12:44;;;;;;;6.75;4.90;;;24.10;99.90;;;;;;4859267;29;20180;-62
2022/06/12 13:15:42;;;;;;;6.93;4.70;;;24.20;99.90;;;;;;4859257;29;20663;-62
2022/06/12 13:18:35;;;;;;;6.93;4.80;;;24.10;99.90;;;;;;4863795;29;20240;-61
2022/06/12 13:21:17;;;;;;;12.88;4.45;;;23.80;99.90;;;;;;4878930;29;20176;-60
2022/06/12 13:24:38;;;;;;;7.85;4.68;;;23.90;99.90;;;;;;4881541;29;20219;-61
2022/06/12 13:27:19;;;;;;;10.00;4.53;;;24.00;99.90;;;;;;4800574;29;20331;-63
2022/06/12 13:29:46;;;;;;;7.60;4.45;;;24.10;99.90;;;;;;4787372;30;20186;-60
2022/06/12 13:32:26;;;;;;;6.88;4.40;;;24.30;99.90;;;;;;4839924;29;20208;-60
2022/06/12 13:35:04;;;;;;;13.90;4.80;;;24.30;99.90;;;;;;4862891;29;20193;-62
2022/06/12 13:37:35;;;;;;;8.48;4.22;;;24.60;99.90;;;;;;4845866;29;20620;-62
2022/06/12 13:40:03;;;;;;;5.07;4.07;;;24.80;99.90;;;;;;4862427;29;20661;-61